sensor_id;sensor_type;location;lat;lon;timestamp;P1;durP1;ratioP1;P2;durP2;ratioP2
32106;SDS011;18622;51.998;10.440;2023-05-14T05:35:22;5.77;;;5.07;;
32106;SDS011;18622;51.998;10.440;2023-05-14T05:37:50;9.80;;;6.40;;
32106;SDS011;18622;51.998;10.440;2023-05-14T05:40:18;7.73;;;5.60;;
32106;SDS011;18622;51.998;10.440;2023-05-14T05:42:46;8.23;;;6.13;;
32106;SDS011;18622;51.998;10.440;2023-05-14T05:45:13;6.03;;;5.40;;
32106;SDS011;18622;51.998;10.440;2023-05-14T05:47:41;6.20;;;5.53;;
32106;SDS011;18622;51.998;10.440;2023-05-14T05:50:09;6.70;;;4.93;;
32106;SDS011;18622;51.998;10.440;2023-05-14T05:52:37;6.33;;;5.10;;
32106;SDS011;18622;51.998;10.440;2023-05-14T05:55:06;7.20;;;5.28;;
32106;SDS011;18622;51.998;10.440;2023-05-14T05:57:34;6.00;;;5.20;;
32106;SDS011;18622;51.998;10.440;2023-05-14T06:00:01;10.07;;;5.77;;
32106;SDS011;18622;51.998;10.440;2023-05-14T06:02:31;7.75;;;5.83;;
32106;SDS011;18622;51.998;10.440;2023-05-14T06:04:59;6.73;;;5.50;;
32106;SDS011;18622;51.998;10.440;2023-05-14T06:07:27;5.93;;;5.27;;
32106;SDS011;18622;51.998;10.440;2023-05-14T06:09:55;7.17;;;5.20;;
32106;SDS011;18622;51.998;10.440;2023-05-14T06:12:22;7.10;;;4.90;;
32106;SDS011;18622;51.998;10.440;2023-05-14T06:14:52;5.80;;;4.90;;
32106;SDS011;18622;51.998;10.440;2023-05-14T06:17:23;5.63;;;5.10;;
32106;SDS011;18622;51.998;10.440;2023-05-14T06:19:50;6.75;;;5.60;;
32106;SDS011;18622;51.998;10.440;2023-05-14T06:22:18;9.20;;;5.53;;
32106;SDS011;18622;51.998;10.440;2023-05-14T06:24:46;10.17;;;5.77;;
32106;SDS011;18622;51.998;10.440;2023-05-14T06:27:14;8.37;;;5.77;;
32106;SDS011;18622;51.998;10.440;2023-05-14T06:29:42;7.63;;;6.00;;
32106;SDS011;18622;51.998;10.440;2023-05-14T06:32:10;8.53;;;5.23;;
32106;SDS011;18622;51.998;10.440;2023-05-14T06:34:40;7.87;;;5.37;;
32106;SDS011;18622;51.998;10.440;2023-05-14T06:37:08;8.65;;;5.87;;
32106;SDS011;18622;51.998;10.440;2023-05-14T06:39:37;8.60;;;4.73;;
32106;SDS011;18622;51.998;10.440;2023-05-14T06:42:05;9.47;;;5.50;;
32106;SDS011;18622;51.998;10.440;2023-05-14T06:44:32;7.03;;;5.17;;
32106;SDS011;18622;51.998;10.440;2023-05-14T06:47:01;5.53;;;4.97;;
32106;SDS011;18622;51.998;10.440;2023-05-14T06:49:29;7.70;;;5.87;;
32106;SDS011;18622;51.998;10.440;2023-05-14T06:51:56;11.03;;;6.03;;
32106;SDS011;18622;51.998;10.440;2023-05-14T06:54:24;7.27;;;5.60;;
32106;SDS011;18622;51.998;10.440;2023-05-14T06:56:52;7.83;;;5.37;;
32106;SDS011;18622;51.998;10.440;2023-05-14T06:59:20;6.90;;;5.73;;
32106;SDS011;18622;51.998;10.440;2023-05-14T07:01:48;6.67;;;6.03;;
32106;SDS011;18622;51.998;10.440;2023-05-14T07:04:16;8.67;;;5.73;;
32106;SDS011;18622;51.998;10.440;2023-05-14T07:06:43;7.97;;;5.60;;
32106;SDS011;18622;51.998;10.440;2023-05-14T07:09:11;9.67;;;5.70;;
32106;SDS011;18622;51.998;10.440;2023-05-14T07:11:39;7.33;;;6.47;;
32106;SDS011;18622;51.998;10.440;2023-05-14T07:14:07;8.47;;;6.20;;
32106;SDS011;18622;51.998;10.440;2023-05-14T07:16:35;10.97;;;5.73;;
32106;SDS011;18622;51.998;10.440;2023-05-14T07:19:02;9.57;;;7.40;;
32106;SDS011;18622;51.998;10.440;2023-05-14T07:21:30;30.13;;;15.43;;
32106;SDS011;18622;51.998;10.440;2023-05-14T07:23:58;16.80;;;9.23;;
32106;SDS011;18622;51.998;10.440;2023-05-14T07:26:26;10.27;;;7.40;;
32106;SDS011;18622;51.998;10.440;2023-05-14T07:28:54;7.53;;;6.33;;
32106;SDS011;18622;51.998;10.440;2023-05-14T07:31:21;6.93;;;6.23;;
32106;SDS011;18622;51.998;10.440;2023-05-14T07:33:49;10.70;;;6.03;;
32106;SDS011;18622;51.998;10.440;2023-05-14T07:36:17;8.07;;;5.53;;
32106;SDS011;18622;51.998;10.440;2023-05-14T07:38:45;7.60;;;5.17;;
32106;SDS011;18622;51.998;10.440;2023-05-14T07:41:13;8.60;;;5.60;;
32106;SDS011;18622;51.998;10.440;2023-05-14T07:43:40;9.27;;;5.67;;
32106;SDS011;18622;51.998;10.440;2023-05-14T07:46:08;7.57;;;5.47;;
32106;SDS011;18622;51.998;10.440;2023-05-14T07:48:36;7.60;;;5.83;;
32106;SDS011;18622;51.998;10.440;2023-05-14T07:51:04;9.40;;;6.03;;
32106;SDS011;18622;51.998;10.440;2023-05-14T07:53:32;7.93;;;5.63;;
32106;SDS011;18622;51.998;10.440;2023-05-14T07:55:59;6.27;;;5.40;;
32106;SDS011;18622;51.998;10.440;2023-05-14T07:58:27;6.40;;;5.37;;
32106;SDS011;18622;51.998;10.440;2023-05-14T08:00:55;5.60;;;5.03;;
32106;SDS011;18622;51.998;10.440;2023-05-14T08:03:23;6.97;;;5.00;;
32106;SDS011;18622;51.998;10.440;2023-05-14T08:05:51;6.73;;;5.57;;
32106;SDS011;18622;51.998;10.440;2023-05-14T08:08:19;8.63;;;5.27;;
32106;SDS011;18622;51.998;10.440;2023-05-14T08:10:47;5.13;;;4.63;;
32106;SDS011;18622;51.998;10.440;2023-05-14T08:13:14;8.30;;;5.27;;
32106;SDS011;18622;51.998;10.440;2023-05-14T08:15:42;5.90;;;4.87;;
32106;SDS011;18622;51.998;10.440;2023-05-14T08:18:10;7.50;;;4.47;;
32106;SDS011;18622;51.998;10.440;2023-05-14T08:20:38;6.43;;;4.07;;
32106;SDS011;18622;51.998;10.440;2023-05-14T08:23:06;5.40;;;4.30;;
32106;SDS011;18622;51.998;10.440;2023-05-14T08:25:34;10.53;;;4.70;;
32106;SDS011;18622;51.998;10.440;2023-05-14T08:28:02;5.23;;;4.73;;
32106;SDS011;18622;51.998;10.440;2023-05-14T08:30:30;6.93;;;5.20;;
32106;SDS011;18622;51.998;10.440;2023-05-14T08:32:57;5.17;;;4.57;;
32106;SDS011;18622;51.998;10.440;2023-05-14T08:35:25;5.50;;;4.53;;
32106;SDS011;18622;51.998;10.440;2023-05-14T08:37:53;5.27;;;4.10;;
32106;SDS011;18622;51.998;10.440;2023-05-14T08:40:21;5.20;;;3.72;;
32106;SDS011;18622;51.998;10.440;2023-05-14T08:42:50;5.40;;;3.87;;
32106;SDS011;18622;51.998;10.440;2023-05-14T08:45:23;4.70;;;3.58;;
32106;SDS011;18622;51.998;10.440;2023-05-14T08:47:50;5.78;;;3.77;;
32106;SDS011;18622;51.998;10.440;2023-05-14T08:50:18;3.53;;;3.23;;
32106;SDS011;18622;51.998;10.440;2023-05-14T08:52:47;5.87;;;4.62;;
32106;SDS011;18622;51.998;10.440;2023-05-14T08:55:15;4.03;;;3.63;;
32106;SDS011;18622;51.998;10.440;2023-05-14T08:57:43;6.03;;;3.33;;
32106;SDS011;18622;51.998;10.440;2023-05-14T09:00:11;2.77;;;2.47;;
32106;SDS011;18622;51.998;10.440;2023-05-14T09:02:41;4.05;;;2.75;;
32106;SDS011;18622;51.998;10.440;2023-05-14T09:05:10;4.17;;;3.15;;
32106;SDS011;18622;51.998;10.440;2023-05-14T09:07:38;4.73;;;3.10;;
32106;SDS011;18622;51.998;10.440;2023-05-14T09:10:06;6.60;;;3.00;;
32106;SDS011;18622;51.998;10.440;2023-05-14T09:12:34;3.60;;;3.30;;
32106;SDS011;18622;51.998;10.440;2023-05-14T09:15:02;4.93;;;3.30;;
32106;SDS011;18622;51.998;10.440;2023-05-14T09:17:30;5.33;;;3.40;;
32106;SDS011;18622;51.998;10.440;2023-05-14T09:19:59;3.40;;;2.77;;
32106;SDS011;18622;51.998;10.440;2023-05-14T09:22:27;4.53;;;3.60;;
32106;SDS011;18622;51.998;10.440;2023-05-14T09:25:04;4.80;;;3.75;;
32106;SDS011;18622;51.998;10.440;2023-05-14T09:27:34;4.47;;;3.60;;
32106;SDS011;18622;51.998;10.440;2023-05-14T09:32:39;8.50;;;4.43;;
32106;SDS011;18622;51.998;10.440;2023-05-14T09:35:17;4.20;;;3.80;;
32106;SDS011;18622;51.998;10.440;2023-05-14T09:37:45;5.53;;;3.45;;
32106;SDS011;18622;51.998;10.440;2023-05-14T09:40:15;6.70;;;4.47;;
32106;SDS011;18622;51.998;10.440;2023-05-14T09:42:44;4.80;;;4.35;;
32106;SDS011;18622;51.998;10.440;2023-05-14T09:47:41;10.45;;;3.95;;
32106;SDS011;18622;51.998;10.440;2023-05-14T09:50:09;3.60;;;3.30;;
32106;SDS011;18622;51.998;10.440;2023-05-14T09:52:37;6.97;;;3.73;;
32106;SDS011;18622;51.998;10.440;2023-05-14T09:55:06;7.13;;;4.40;;
32106;SDS011;18622;51.998;10.440;2023-05-14T09:57:34;6.12;;;3.70;;
32106;SDS011;18622;51.998;10.440;2023-05-14T10:00:02;6.77;;;3.73;;
32106;SDS011;18622;51.998;10.440;2023-05-14T10:02:35;4.25;;;3.80;;
32106;SDS011;18622;51.998;10.440;2023-05-14T10:05:05;9.20;;;3.90;;
32106;SDS011;18622;51.998;10.440;2023-05-14T10:07:36;4.67;;;4.20;;
32106;SDS011;18622;51.998;10.440;2023-05-14T10:10:12;6.23;;;4.60;;
32106;SDS011;18622;51.998;10.440;2023-05-14T10:12:56;4.30;;;3.90;;
32106;SDS011;18622;51.998;10.440;2023-05-14T10:15:31;6.00;;;3.53;;
32106;SDS011;18622;51.998;10.440;2023-05-14T10:17:58;4.20;;;3.40;;
32106;SDS011;18622;51.998;10.440;2023-05-14T10:20:28;6.53;;;3.50;;
32106;SDS011;18622;51.998;10.440;2023-05-14T10:22:57;4.58;;;3.98;;
32106;SDS011;18622;51.998;10.440;2023-05-14T10:25:25;5.17;;;3.50;;
32106;SDS011;18622;51.998;10.440;2023-05-14T10:27:54;5.53;;;3.80;;
32106;SDS011;18622;51.998;10.440;2023-05-14T10:30:22;4.87;;;3.40;;
32106;SDS011;18622;51.998;10.440;2023-05-14T10:33:04;6.73;;;3.17;;
32106;SDS011;18622;51.998;10.440;2023-05-14T10:35:33;5.80;;;2.90;;
32106;SDS011;18622;51.998;10.440;2023-05-14T10:38:08;2.93;;;2.70;;
32106;SDS011;18622;51.998;10.440;2023-05-14T10:40:36;5.70;;;3.93;;
32106;SDS011;18622;51.998;10.440;2023-05-14T10:43:05;3.80;;;3.17;;
32106;SDS011;18622;51.998;10.440;2023-05-14T10:45:33;4.22;;;3.27;;
32106;SDS011;18622;51.998;10.440;2023-05-14T10:48:02;7.03;;;5.28;;
32106;SDS011;18622;51.998;10.440;2023-05-14T10:50:30;6.70;;;2.97;;
32106;SDS011;18622;51.998;10.440;2023-05-14T10:52:58;5.10;;;3.00;;
32106;SDS011;18622;51.998;10.440;2023-05-14T10:55:26;6.83;;;3.20;;
32106;SDS011;18622;51.998;10.440;2023-05-14T10:57:57;3.70;;;3.17;;
32106;SDS011;18622;51.998;10.440;2023-05-14T11:00:26;5.87;;;3.63;;
32106;SDS011;18622;51.998;10.440;2023-05-14T11:02:55;3.70;;;3.40;;
32106;SDS011;18622;51.998;10.440;2023-05-14T11:05:23;4.28;;;3.42;;
32106;SDS011;18622;51.998;10.440;2023-05-14T11:10:20;4.73;;;3.37;;
32106;SDS011;18622;51.998;10.440;2023-05-14T11:12:50;6.57;;;3.40;;
32106;SDS011;18622;51.998;10.440;2023-05-14T11:15:24;5.30;;;3.60;;
32106;SDS011;18622;51.998;10.440;2023-05-14T11:17:49;5.75;;;3.15;;
32106;SDS011;18622;51.998;10.440;2023-05-14T11:22:46;6.03;;;3.30;;
32106;SDS011;18622;51.998;10.440;2023-05-14T11:25:16;3.83;;;3.25;;
32106;SDS011;18622;51.998;10.440;2023-05-14T11:27:44;5.93;;;3.90;;
32106;SDS011;18622;51.998;10.440;2023-05-14T11:30:14;7.65;;;3.70;;
32106;SDS011;18622;51.998;10.440;2023-05-14T11:32:46;6.45;;;3.37;;
32106;SDS011;18622;51.998;10.440;2023-05-14T11:35:15;4.33;;;3.37;;
32106;SDS011;18622;51.998;10.440;2023-05-14T11:37:49;3.83;;;3.00;;
32106;SDS011;18622;51.998;10.440;2023-05-14T11:40:18;4.20;;;3.50;;
32106;SDS011;18622;51.998;10.440;2023-05-14T11:42:46;5.20;;;3.47;;
32106;SDS011;18622;51.998;10.440;2023-05-14T11:45:24;4.43;;;3.43;;
32106;SDS011;18622;51.998;10.440;2023-05-14T11:47:54;3.93;;;3.30;;
32106;SDS011;18622;51.998;10.440;2023-05-14T11:50:22;6.85;;;3.62;;
32106;SDS011;18622;51.998;10.440;2023-05-14T11:52:50;6.63;;;4.40;;
32106;SDS011;18622;51.998;10.440;2023-05-14T11:57:57;4.53;;;3.60;;
32106;SDS011;18622;51.998;10.440;2023-05-14T12:00:25;5.80;;;3.60;;
32106;SDS011;18622;51.998;10.440;2023-05-14T12:02:53;4.47;;;3.90;;
32106;SDS011;18622;51.998;10.440;2023-05-14T12:05:20;4.70;;;3.70;;
32106;SDS011;18622;51.998;10.440;2023-05-14T12:07:48;6.03;;;4.10;;
32106;SDS011;18622;51.998;10.440;2023-05-14T12:10:16;7.05;;;4.15;;
32106;SDS011;18622;51.998;10.440;2023-05-14T12:12:44;6.90;;;4.47;;
32106;SDS011;18622;51.998;10.440;2023-05-14T12:15:14;7.62;;;3.77;;
32106;SDS011;18622;51.998;10.440;2023-05-14T12:17:46;5.25;;;3.85;;
32106;SDS011;18622;51.998;10.440;2023-05-14T12:20:17;4.92;;;4.05;;
32106;SDS011;18622;51.998;10.440;2023-05-14T12:22:45;6.03;;;4.37;;
32106;SDS011;18622;51.998;10.440;2023-05-14T12:25:12;4.40;;;3.53;;
32106;SDS011;18622;51.998;10.440;2023-05-14T12:27:42;4.27;;;3.40;;
32106;SDS011;18622;51.998;10.440;2023-05-14T12:30:11;5.20;;;4.33;;
32106;SDS011;18622;51.998;10.440;2023-05-14T12:32:40;3.77;;;3.47;;
32106;SDS011;18622;51.998;10.440;2023-05-14T12:35:08;3.80;;;3.40;;
32106;SDS011;18622;51.998;10.440;2023-05-14T12:37:36;4.37;;;3.50;;
32106;SDS011;18622;51.998;10.440;2023-05-14T12:42:33;4.60;;;3.98;;
32106;SDS011;18622;51.998;10.440;2023-05-14T12:45:01;5.47;;;3.50;;
32106;SDS011;18622;51.998;10.440;2023-05-14T12:47:31;5.50;;;3.13;;
32106;SDS011;18622;51.998;10.440;2023-05-14T12:49:59;4.47;;;3.00;;
32106;SDS011;18622;51.998;10.440;2023-05-14T12:52:27;5.93;;;2.80;;
32106;SDS011;18622;51.998;10.440;2023-05-14T12:54:55;3.93;;;2.73;;
32106;SDS011;18622;51.998;10.440;2023-05-14T12:57:22;4.90;;;3.37;;
32106;SDS011;18622;51.998;10.440;2023-05-14T13:02:18;3.75;;;2.50;;
32106;SDS011;18622;51.998;10.440;2023-05-14T13:04:47;5.30;;;2.90;;
32106;SDS011;18622;51.998;10.440;2023-05-14T13:07:14;3.70;;;2.87;;
32106;SDS011;18622;51.998;10.440;2023-05-14T13:09:42;3.72;;;3.02;;
32106;SDS011;18622;51.998;10.440;2023-05-14T13:12:09;5.92;;;2.90;;
32106;SDS011;18622;51.998;10.440;2023-05-14T13:14:37;3.87;;;3.50;;
32106;SDS011;18622;51.998;10.440;2023-05-14T13:17:04;4.17;;;3.17;;
32106;SDS011;18622;51.998;10.440;2023-05-14T13:19:33;3.25;;;2.95;;
32106;SDS011;18622;51.998;10.440;2023-05-14T13:22:00;3.15;;;2.80;;
32106;SDS011;18622;51.998;10.440;2023-05-14T13:24:28;5.17;;;3.10;;
32106;SDS011;18622;51.998;10.440;2023-05-14T13:26:56;5.90;;;3.00;;
32106;SDS011;18622;51.998;10.440;2023-05-14T13:29:23;6.97;;;3.30;;
32106;SDS011;18622;51.998;10.440;2023-05-14T13:31:51;10.38;;;3.20;;
32106;SDS011;18622;51.998;10.440;2023-05-14T13:34:18;4.45;;;2.80;;
32106;SDS011;18622;51.998;10.440;2023-05-14T13:36:46;3.57;;;2.83;;
32106;SDS011;18622;51.998;10.440;2023-05-14T13:39:15;3.42;;;2.70;;
32106;SDS011;18622;51.998;10.440;2023-05-14T13:41:44;3.15;;;2.80;;
32106;SDS011;18622;51.998;10.440;2023-05-14T13:44:12;4.27;;;3.17;;
32106;SDS011;18622;51.998;10.440;2023-05-14T13:46:39;5.33;;;3.22;;
32106;SDS011;18622;51.998;10.440;2023-05-14T13:49:07;4.87;;;3.15;;
32106;SDS011;18622;51.998;10.440;2023-05-14T13:51:35;5.40;;;3.20;;
32106;SDS011;18622;51.998;10.440;2023-05-14T13:54:02;4.35;;;3.20;;
32106;SDS011;18622;51.998;10.440;2023-05-14T13:56:31;4.13;;;3.60;;
32106;SDS011;18622;51.998;10.440;2023-05-14T13:58:58;5.80;;;3.80;;
32106;SDS011;18622;51.998;10.440;2023-05-14T14:01:26;3.67;;;3.23;;
32106;SDS011;18622;51.998;10.440;2023-05-14T14:03:55;4.22;;;3.50;;
32106;SDS011;18622;51.998;10.440;2023-05-14T14:06:24;9.00;;;3.65;;
32106;SDS011;18622;51.998;10.440;2023-05-14T14:08:52;5.15;;;3.40;;
32106;SDS011;18622;51.998;10.440;2023-05-14T14:11:20;5.50;;;4.30;;
32106;SDS011;18622;51.998;10.440;2023-05-14T14:13:48;6.17;;;3.27;;
32106;SDS011;18622;51.998;10.440;2023-05-14T14:16:16;3.63;;;3.33;;
32106;SDS011;18622;51.998;10.440;2023-05-14T14:18:43;5.27;;;3.50;;
32106;SDS011;18622;51.998;10.440;2023-05-14T14:21:11;5.73;;;3.60;;
32106;SDS011;18622;51.998;10.440;2023-05-14T14:23:40;7.17;;;3.70;;
32106;SDS011;18622;51.998;10.440;2023-05-14T14:26:08;7.92;;;3.70;;
32106;SDS011;18622;51.998;10.440;2023-05-14T14:28:35;5.08;;;3.10;;
32106;SDS011;18622;51.998;10.440;2023-05-14T14:31:03;6.80;;;2.95;;
32106;SDS011;18622;51.998;10.440;2023-05-14T14:33:31;4.13;;;2.60;;
32106;SDS011;18622;51.998;10.440;2023-05-14T14:35:59;4.03;;;2.60;;
32106;SDS011;18622;51.998;10.440;2023-05-14T14:38:27;5.30;;;2.63;;
32106;SDS011;18622;51.998;10.440;2023-05-14T14:40:55;3.90;;;2.57;;
32106;SDS011;18622;51.998;10.440;2023-05-14T14:43:23;7.80;;;2.98;;
32106;SDS011;18622;51.998;10.440;2023-05-14T14:45:51;8.37;;;2.40;;
32106;SDS011;18622;51.998;10.440;2023-05-14T14:48:23;3.80;;;2.40;;
32106;SDS011;18622;51.998;10.440;2023-05-14T14:50:52;5.05;;;2.33;;
32106;SDS011;18622;51.998;10.440;2023-05-14T14:53:21;3.67;;;2.87;;
32106;SDS011;18622;51.998;10.440;2023-05-14T14:55:50;6.03;;;2.25;;
32106;SDS011;18622;51.998;10.440;2023-05-14T14:58:18;4.80;;;2.60;;
32106;SDS011;18622;51.998;10.440;2023-05-14T15:00:47;3.42;;;2.12;;
32106;SDS011;18622;51.998;10.440;2023-05-14T15:03:17;5.83;;;2.67;;
32106;SDS011;18622;51.998;10.440;2023-05-14T15:05:45;6.93;;;2.37;;
32106;SDS011;18622;51.998;10.440;2023-05-14T15:08:13;4.83;;;2.30;;
32106;SDS011;18622;51.998;10.440;2023-05-14T15:10:41;6.07;;;2.47;;
32106;SDS011;18622;51.998;10.440;2023-05-14T15:13:10;4.67;;;2.60;;
32106;SDS011;18622;51.998;10.440;2023-05-14T15:15:38;4.00;;;2.93;;
32106;SDS011;18622;51.998;10.440;2023-05-14T15:18:06;6.67;;;2.87;;
32106;SDS011;18622;51.998;10.440;2023-05-14T15:20:33;7.28;;;2.72;;
32106;SDS011;18622;51.998;10.440;2023-05-14T15:23:01;7.53;;;2.58;;
32106;SDS011;18622;51.998;10.440;2023-05-14T15:25:29;3.42;;;2.77;;
32106;SDS011;18622;51.998;10.440;2023-05-14T15:27:56;4.87;;;2.67;;
32106;SDS011;18622;51.998;10.440;2023-05-14T15:30:24;2.70;;;2.50;;
32106;SDS011;18622;51.998;10.440;2023-05-14T15:32:51;3.50;;;2.50;;
32106;SDS011;18622;51.998;10.440;2023-05-14T15:35:19;9.45;;;2.95;;
32106;SDS011;18622;51.998;10.440;2023-05-14T15:37:46;4.05;;;2.60;;
32106;SDS011;18622;51.998;10.440;2023-05-14T15:40:14;2.90;;;2.65;;
32106;SDS011;18622;51.998;10.440;2023-05-14T15:42:42;5.67;;;2.83;;
32106;SDS011;18622;51.998;10.440;2023-05-14T15:45:11;3.27;;;2.98;;
32106;SDS011;18622;51.998;10.440;2023-05-14T15:47:40;4.50;;;3.60;;
32106;SDS011;18622;51.998;10.440;2023-05-14T15:50:09;5.80;;;2.85;;
32106;SDS011;18622;51.998;10.440;2023-05-14T15:52:37;7.45;;;3.15;;
32106;SDS011;18622;51.998;10.440;2023-05-14T15:55:06;3.45;;;2.85;;
32106;SDS011;18622;51.998;10.440;2023-05-14T15:57:34;3.35;;;2.87;;
32106;SDS011;18622;51.998;10.440;2023-05-14T16:00:03;4.07;;;2.90;;
32106;SDS011;18622;51.998;10.440;2023-05-14T16:02:37;3.62;;;3.33;;
32106;SDS011;18622;51.998;10.440;2023-05-14T16:05:07;8.60;;;3.40;;
32106;SDS011;18622;51.998;10.440;2023-05-14T16:07:43;8.33;;;3.50;;
32106;SDS011;18622;51.998;10.440;2023-05-14T16:10:14;3.83;;;3.12;;
32106;SDS011;18622;51.998;10.440;2023-05-14T16:12:42;4.90;;;3.00;;
32106;SDS011;18622;51.998;10.440;2023-05-14T16:15:09;3.10;;;2.90;;
32106;SDS011;18622;51.998;10.440;2023-05-14T16:17:38;9.60;;;2.70;;
32106;SDS011;18622;51.998;10.440;2023-05-14T16:20:06;5.53;;;3.20;;
32106;SDS011;18622;51.998;10.440;2023-05-14T16:22:34;4.28;;;3.10;;
32106;SDS011;18622;51.998;10.440;2023-05-14T16:25:02;4.30;;;2.90;;
32106;SDS011;18622;51.998;10.440;2023-05-14T16:27:30;5.12;;;2.95;;
32106;SDS011;18622;51.998;10.440;2023-05-14T16:29:58;7.90;;;2.87;;
32106;SDS011;18622;51.998;10.440;2023-05-14T16:32:26;2.95;;;2.70;;
32106;SDS011;18622;51.998;10.440;2023-05-14T16:34:53;2.92;;;2.65;;
32106;SDS011;18622;51.998;10.440;2023-05-14T16:37:21;4.20;;;2.90;;
32106;SDS011;18622;51.998;10.440;2023-05-14T16:39:49;2.63;;;2.43;;
32106;SDS011;18622;51.998;10.440;2023-05-14T16:42:16;4.97;;;2.77;;
32106;SDS011;18622;51.998;10.440;2023-05-14T16:44:44;2.63;;;2.43;;
32106;SDS011;18622;51.998;10.440;2023-05-14T16:47:12;4.80;;;2.50;;
32106;SDS011;18622;51.998;10.440;2023-05-14T16:49:39;4.10;;;2.42;;
32106;SDS011;18622;51.998;10.440;2023-05-14T16:52:08;2.70;;;2.50;;
32106;SDS011;18622;51.998;10.440;2023-05-14T16:54:35;4.53;;;2.40;;
32106;SDS011;18622;51.998;10.440;2023-05-14T16:57:03;12.70;;;3.05;;
32106;SDS011;18622;51.998;10.440;2023-05-14T16:59:31;4.75;;;2.58;;
32106;SDS011;18622;51.998;10.440;2023-05-14T17:02:05;3.68;;;2.75;;
32106;SDS011;18622;51.998;10.440;2023-05-14T17:04:33;2.98;;;2.50;;
32106;SDS011;18622;51.998;10.440;2023-05-14T17:07:02;2.92;;;2.60;;
32106;SDS011;18622;51.998;10.440;2023-05-14T17:09:31;2.60;;;2.40;;
32106;SDS011;18622;51.998;10.440;2023-05-14T17:11:59;3.00;;;2.40;;
32106;SDS011;18622;51.998;10.440;2023-05-14T17:14:27;4.27;;;2.27;;
32106;SDS011;18622;51.998;10.440;2023-05-14T17:16:55;3.30;;;2.37;;
32106;SDS011;18622;51.998;10.440;2023-05-14T17:19:22;4.67;;;2.20;;
32106;SDS011;18622;51.998;10.440;2023-05-14T17:21:50;5.40;;;2.50;;
32106;SDS011;18622;51.998;10.440;2023-05-14T17:24:18;6.80;;;2.53;;
32106;SDS011;18622;51.998;10.440;2023-05-14T17:26:46;5.00;;;2.50;;
32106;SDS011;18622;51.998;10.440;2023-05-14T17:29:14;4.83;;;2.50;;
32106;SDS011;18622;51.998;10.440;2023-05-14T17:31:42;3.43;;;2.23;;
32106;SDS011;18622;51.998;10.440;2023-05-14T17:34:10;4.87;;;2.67;;
32106;SDS011;18622;51.998;10.440;2023-05-14T17:36:37;5.07;;;2.60;;
32106;SDS011;18622;51.998;10.440;2023-05-14T17:39:05;6.57;;;2.60;;
32106;SDS011;18622;51.998;10.440;2023-05-14T17:41:33;4.30;;;2.67;;
32106;SDS011;18622;51.998;10.440;2023-05-14T17:44:01;11.33;;;2.80;;
32106;SDS011;18622;51.998;10.440;2023-05-14T17:46:29;6.10;;;3.40;;
32106;SDS011;18622;51.998;10.440;2023-05-14T17:48:58;5.35;;;2.87;;
32106;SDS011;18622;51.998;10.440;2023-05-14T17:51:26;4.07;;;2.67;;
32106;SDS011;18622;51.998;10.440;2023-05-14T17:53:53;7.20;;;3.10;;
32106;SDS011;18622;51.998;10.440;2023-05-14T17:56:21;4.83;;;3.00;;
32106;SDS011;18622;51.998;10.440;2023-05-14T17:58:49;5.07;;;2.97;;
32106;SDS011;18622;51.998;10.440;2023-05-14T18:01:17;4.70;;;2.93;;
32106;SDS011;18622;51.998;10.440;2023-05-14T18:03:45;8.97;;;3.23;;
32106;SDS011;18622;51.998;10.440;2023-05-14T18:06:12;4.57;;;2.83;;
32106;SDS011;18622;51.998;10.440;2023-05-14T18:08:40;5.90;;;2.57;;
32106;SDS011;18622;51.998;10.440;2023-05-14T18:11:08;8.00;;;2.90;;
32106;SDS011;18622;51.998;10.440;2023-05-14T18:13:36;6.63;;;2.73;;
32106;SDS011;18622;51.998;10.440;2023-05-14T18:16:04;4.77;;;2.90;;
32106;SDS011;18622;51.998;10.440;2023-05-14T18:18:32;5.70;;;3.17;;
32106;SDS011;18622;51.998;10.440;2023-05-14T18:20:59;5.43;;;3.60;;
32106;SDS011;18622;51.998;10.440;2023-05-14T18:23:27;7.10;;;3.30;;
32106;SDS011;18622;51.998;10.440;2023-05-14T18:25:55;10.90;;;3.40;;
32106;SDS011;18622;51.998;10.440;2023-05-14T18:28:23;5.97;;;3.00;;
32106;SDS011;18622;51.998;10.440;2023-05-14T18:30:51;6.30;;;3.33;;
32106;SDS011;18622;51.998;10.440;2023-05-14T18:33:19;12.50;;;3.50;;
32106;SDS011;18622;51.998;10.440;2023-05-14T18:35:47;6.87;;;3.47;;
32106;SDS011;18622;51.998;10.440;2023-05-14T18:38:14;8.80;;;3.30;;
32106;SDS011;18622;51.998;10.440;2023-05-14T18:40:44;4.90;;;2.92;;
32106;SDS011;18622;51.998;10.440;2023-05-14T18:43:12;6.43;;;3.57;;
32106;SDS011;18622;51.998;10.440;2023-05-14T18:45:41;9.40;;;4.85;;
32106;SDS011;18622;51.998;10.440;2023-05-14T18:48:11;5.78;;;3.47;;
32106;SDS011;18622;51.998;10.440;2023-05-14T18:50:39;6.75;;;3.10;;
32106;SDS011;18622;51.998;10.440;2023-05-14T18:53:07;5.10;;;3.33;;
32106;SDS011;18622;51.998;10.440;2023-05-14T18:55:35;7.73;;;3.70;;
32106;SDS011;18622;51.998;10.440;2023-05-14T18:58:02;6.80;;;3.63;;
32106;SDS011;18622;51.998;10.440;2023-05-14T19:00:30;10.50;;;3.73;;
32106;SDS011;18622;51.998;10.440;2023-05-14T19:02:58;10.03;;;3.77;;
32106;SDS011;18622;51.998;10.440;2023-05-14T19:05:26;10.20;;;3.70;;
32106;SDS011;18622;51.998;10.440;2023-05-14T19:07:54;6.67;;;4.30;;
32106;SDS011;18622;51.998;10.440;2023-05-14T19:10:22;6.25;;;3.80;;
32106;SDS011;18622;51.998;10.440;2023-05-14T19:12:50;8.83;;;3.60;;
32106;SDS011;18622;51.998;10.440;2023-05-14T19:15:18;12.60;;;3.70;;
32106;SDS011;18622;51.998;10.440;2023-05-14T19:17:46;7.03;;;3.40;;
32106;SDS011;18622;51.998;10.440;2023-05-14T19:20:14;7.13;;;3.50;;
32106;SDS011;18622;51.998;10.440;2023-05-14T19:22:42;8.77;;;3.67;;
32106;SDS011;18622;51.998;10.440;2023-05-14T19:25:09;5.17;;;3.60;;
32106;SDS011;18622;51.998;10.440;2023-05-14T19:27:37;9.67;;;3.30;;
32106;SDS011;18622;51.998;10.440;2023-05-14T19:30:05;5.37;;;3.40;;
32106;SDS011;18622;51.998;10.440;2023-05-14T19:32:33;6.15;;;3.40;;
32106;SDS011;18622;51.998;10.440;2023-05-14T19:35:03;4.15;;;3.45;;
32106;SDS011;18622;51.998;10.440;2023-05-14T19:37:31;8.38;;;3.72;;
32106;SDS011;18622;51.998;10.440;2023-05-14T19:39:59;7.33;;;3.53;;
32106;SDS011;18622;51.998;10.440;2023-05-14T19:42:27;11.47;;;3.40;;
32106;SDS011;18622;51.998;10.440;2023-05-14T19:44:55;7.93;;;3.40;;
32106;SDS011;18622;51.998;10.440;2023-05-14T19:47:23;6.67;;;3.70;;
32106;SDS011;18622;51.998;10.440;2023-05-14T19:49:51;10.73;;;4.10;;
32106;SDS011;18622;51.998;10.440;2023-05-14T19:52:18;7.40;;;3.60;;
32106;SDS011;18622;51.998;10.440;2023-05-14T19:54:46;6.70;;;3.27;;
32106;SDS011;18622;51.998;10.440;2023-05-14T19:57:14;7.13;;;3.27;;
32106;SDS011;18622;51.998;10.440;2023-05-14T19:59:42;11.30;;;3.50;;
32106;SDS011;18622;51.998;10.440;2023-05-14T20:02:10;4.50;;;3.40;;
32106;SDS011;18622;51.998;10.440;2023-05-14T20:04:39;4.65;;;3.12;;
32106;SDS011;18622;51.998;10.440;2023-05-14T20:07:07;12.07;;;4.47;;
32106;SDS011;18622;51.998;10.440;2023-05-14T20:09:35;3.63;;;3.27;;
32106;SDS011;18622;51.998;10.440;2023-05-14T20:12:03;9.07;;;3.20;;
32106;SDS011;18622;51.998;10.440;2023-05-14T20:14:31;6.60;;;3.27;;
32106;SDS011;18622;51.998;10.440;2023-05-14T20:16:58;8.90;;;3.30;;
32106;SDS011;18622;51.998;10.440;2023-05-14T20:19:26;5.47;;;3.40;;
32106;SDS011;18622;51.998;10.440;2023-05-14T20:21:54;13.47;;;3.37;;
32106;SDS011;18622;51.998;10.440;2023-05-14T20:24:23;8.53;;;3.70;;
32106;SDS011;18622;51.998;10.440;2023-05-14T20:26:50;10.55;;;3.27;;
32106;SDS011;18622;51.998;10.440;2023-05-14T20:29:18;6.60;;;3.93;;
32106;SDS011;18622;51.998;10.440;2023-05-14T20:31:46;11.97;;;3.40;;